Airfield :
LOGIN :

Register | Disclaimer

   EN    FR    IT 

 










Legend :    VFR   Marginal VFR   IFR   Intensive IFR   Very Intensive IFR
Visi :
Ceiling :
>= 8 km
>= 3000ft
5 to 8 km
1000 to 3000 ft
1500m to 5 km
500 to 1000 ft
800 to 1500m
200 to 500 ft
< 800m
< 200 ft
Symbols :   Thunderstorms  Fog  Heavy snow  Heavy precipitations  Wind > 20 kt
SIGMETs :     Misc.  Thunderstorms  Icing  Turbulence  Mountain Waves  Volcanic Ashes






- Airport Elevation : 502 ft
- IATA code : ORK


EICK - Cork

CURRENT METAR :
  • 010600Z 35006KT 9999 BKN033 05/01 Q1028 NOSIG

EXPIRED METARs :
  • 010530Z 34006KT 9999 BKN030 06/01 Q1029 NOSIG
  • 010500Z 01007KT 9999 BKN034 06/01 Q1029 NOSIG
  • 010430Z 01008KT 9999 BKN036 06/M00 Q1029 NOSIG
  • 010400Z 01009KT 9999 BKN037 06/01 Q1029 NOSIG
  • 010330Z 36008KT 9999 BKN038 06/00 Q1029 NOSIG

TAF TAF EICK
Valid from the 01 at 06:00 until the 02 at 06:00 UTC


010500Z 0106/0206 36010KT 9999 BKN035
BECMG 0117/0119 33010KT
BECMG 0122/0124 30005KT



MET'MAP, your aeronautical weather chart ! - Copyright ORBIFLY December 2007 - Disclaimer

ORBIFLY MET'MAP TEAM :

Programming & Development : Alexandra Zaïnal
Concept & original design : Baudouin d'Aumeries
Assistance for programming : Marc-Olivier Méhu
Technical & hardware support : Manuel Goepfert

Contact : metmap@orbifly.com




SOURCES & CREDITS :

   NOAA